sensor_id;sensor_type;location;lat;lon;timestamp;P1;durP1;ratioP1;P2;durP2;ratioP2
67162;SDS011;54092;53.088;8.850;2023-07-31T00:01:42;8.68;;;3.30;;
67162;SDS011;54092;53.088;8.850;2023-07-31T00:04:08;8.15;;;3.35;;
67162;SDS011;54092;53.088;8.850;2023-07-31T00:06:33;10.15;;;2.92;;
67162;SDS011;54092;53.088;8.850;2023-07-31T00:08:59;10.93;;;3.70;;
67162;SDS011;54092;53.088;8.850;2023-07-31T00:11:25;8.68;;;3.10;;
67162;SDS011;54092;53.088;8.850;2023-07-31T00:13:50;7.88;;;3.00;;
67162;SDS011;54092;53.088;8.850;2023-07-31T00:16:18;8.60;;;3.58;;
67162;SDS011;54092;53.088;8.850;2023-07-31T00:18:43;12.25;;;3.33;;
67162;SDS011;54092;53.088;8.850;2023-07-31T00:21:09;7.18;;;3.22;;
67162;SDS011;54092;53.088;8.850;2023-07-31T00:23:34;8.88;;;3.97;;
67162;SDS011;54092;53.088;8.850;2023-07-31T00:26:00;7.28;;;3.10;;
67162;SDS011;54092;53.088;8.850;2023-07-31T00:28:25;9.43;;;3.10;;
67162;SDS011;54092;53.088;8.850;2023-07-31T00:30:52;7.13;;;3.15;;
67162;SDS011;54092;53.088;8.850;2023-07-31T00:33:18;6.45;;;2.75;;
67162;SDS011;54092;53.088;8.850;2023-07-31T00:35:43;7.47;;;3.42;;
67162;SDS011;54092;53.088;8.850;2023-07-31T00:38:09;10.02;;;3.22;;
67162;SDS011;54092;53.088;8.850;2023-07-31T00:40:35;10.93;;;3.22;;
67162;SDS011;54092;53.088;8.850;2023-07-31T00:43:01;7.57;;;3.30;;
67162;SDS011;54092;53.088;8.850;2023-07-31T00:45:28;6.82;;;3.22;;
67162;SDS011;54092;53.088;8.850;2023-07-31T00:47:54;7.93;;;3.15;;
67162;SDS011;54092;53.088;8.850;2023-07-31T00:50:19;7.88;;;3.33;;
67162;SDS011;54092;53.088;8.850;2023-07-31T00:52:45;10.27;;;3.25;;
67162;SDS011;54092;53.088;8.850;2023-07-31T00:55:10;7.60;;;3.20;;
67162;SDS011;54092;53.088;8.850;2023-07-31T00:57:36;7.80;;;2.95;;
67162;SDS011;54092;53.088;8.850;2023-07-31T01:00:03;8.55;;;3.65;;
67162;SDS011;54092;53.088;8.850;2023-07-31T01:02:29;9.90;;;3.20;;
67162;SDS011;54092;53.088;8.850;2023-07-31T01:04:54;9.35;;;3.17;;
67162;SDS011;54092;53.088;8.850;2023-07-31T01:07:22;8.82;;;3.42;;
67162;SDS011;54092;53.088;8.850;2023-07-31T01:12:42;10.93;;;3.58;;
67162;SDS011;54092;53.088;8.850;2023-07-31T01:15:11;8.48;;;3.78;;
67162;SDS011;54092;53.088;8.850;2023-07-31T01:17:39;6.43;;;3.05;;
67162;SDS011;54092;53.088;8.850;2023-07-31T01:20:15;9.07;;;3.22;;
67162;SDS011;54092;53.088;8.850;2023-07-31T01:25:45;8.13;;;3.38;;
67162;SDS011;54092;53.088;8.850;2023-07-31T01:28:17;8.73;;;3.00;;
67162;SDS011;54092;53.088;8.850;2023-07-31T01:30:47;8.10;;;3.22;;
67162;SDS011;54092;53.088;8.850;2023-07-31T01:33:13;8.25;;;3.33;;
67162;SDS011;54092;53.088;8.850;2023-07-31T01:35:42;7.65;;;3.72;;
67162;SDS011;54092;53.088;8.850;2023-07-31T01:38:09;6.28;;;2.97;;
67162;SDS011;54092;53.088;8.850;2023-07-31T01:40:35;7.47;;;2.72;;
67162;SDS011;54092;53.088;8.850;2023-07-31T01:43:00;8.10;;;3.10;;
67162;SDS011;54092;53.088;8.850;2023-07-31T01:45:26;9.65;;;3.15;;
67162;SDS011;54092;53.088;8.850;2023-07-31T01:47:52;7.47;;;3.22;;
67162;SDS011;54092;53.088;8.850;2023-07-31T01:50:17;6.35;;;2.80;;
67162;SDS011;54092;53.088;8.850;2023-07-31T01:52:43;7.95;;;3.13;;
67162;SDS011;54092;53.088;8.850;2023-07-31T01:55:08;5.38;;;3.08;;
67162;SDS011;54092;53.088;8.850;2023-07-31T01:57:34;8.00;;;3.10;;
67162;SDS011;54092;53.088;8.850;2023-07-31T02:00:01;7.88;;;3.17;;
67162;SDS011;54092;53.088;8.850;2023-07-31T02:02:27;6.55;;;3.08;;
67162;SDS011;54092;53.088;8.850;2023-07-31T02:04:52;7.25;;;3.53;;
67162;SDS011;54092;53.088;8.850;2023-07-31T02:07:18;8.35;;;2.80;;
67162;SDS011;54092;53.088;8.850;2023-07-31T02:09:43;8.32;;;3.28;;
67162;SDS011;54092;53.088;8.850;2023-07-31T02:12:09;7.10;;;3.47;;
67162;SDS011;54092;53.088;8.850;2023-07-31T02:14:34;6.20;;;2.95;;
67162;SDS011;54092;53.088;8.850;2023-07-31T02:17:00;8.35;;;3.50;;
67162;SDS011;54092;53.088;8.850;2023-07-31T02:19:26;6.43;;;3.15;;
67162;SDS011;54092;53.088;8.850;2023-07-31T02:21:51;6.95;;;3.17;;
67162;SDS011;54092;53.088;8.850;2023-07-31T02:24:16;7.45;;;3.42;;
67162;SDS011;54092;53.088;8.850;2023-07-31T02:26:42;6.43;;;3.25;;
67162;SDS011;54092;53.088;8.850;2023-07-31T02:29:08;7.22;;;3.83;;
67162;SDS011;54092;53.088;8.850;2023-07-31T02:31:33;6.90;;;3.53;;
67162;SDS011;54092;53.088;8.850;2023-07-31T02:33:59;9.20;;;3.40;;
67162;SDS011;54092;53.088;8.850;2023-07-31T02:36:25;6.18;;;3.25;;
67162;SDS011;54092;53.088;8.850;2023-07-31T02:38:50;7.40;;;3.70;;
67162;SDS011;54092;53.088;8.850;2023-07-31T02:41:16;8.48;;;4.05;;
67162;SDS011;54092;53.088;8.850;2023-07-31T02:43:41;7.45;;;3.80;;
67162;SDS011;54092;53.088;8.850;2023-07-31T02:46:07;6.47;;;3.63;;
67162;SDS011;54092;53.088;8.850;2023-07-31T02:48:32;8.63;;;3.65;;
67162;SDS011;54092;53.088;8.850;2023-07-31T02:50:58;7.65;;;3.88;;
67162;SDS011;54092;53.088;8.850;2023-07-31T02:53:23;8.15;;;4.03;;
67162;SDS011;54092;53.088;8.850;2023-07-31T02:55:49;8.63;;;3.80;;
67162;SDS011;54092;53.088;8.850;2023-07-31T02:58:14;9.13;;;3.90;;
67162;SDS011;54092;53.088;8.850;2023-07-31T03:00:43;9.13;;;3.72;;
67162;SDS011;54092;53.088;8.850;2023-07-31T03:03:09;8.63;;;4.18;;
67162;SDS011;54092;53.088;8.850;2023-07-31T03:05:35;7.22;;;3.60;;
67162;SDS011;54092;53.088;8.850;2023-07-31T03:08:00;10.45;;;4.22;;
67162;SDS011;54092;53.088;8.850;2023-07-31T03:10:26;7.90;;;3.80;;
67162;SDS011;54092;53.088;8.850;2023-07-31T03:12:52;7.45;;;3.50;;
67162;SDS011;54092;53.088;8.850;2023-07-31T03:15:17;7.00;;;3.97;;
67162;SDS011;54092;53.088;8.850;2023-07-31T03:17:43;7.18;;;3.90;;
67162;SDS011;54092;53.088;8.850;2023-07-31T03:20:08;7.57;;;3.65;;
67162;SDS011;54092;53.088;8.850;2023-07-31T03:22:34;7.43;;;3.83;;
67162;SDS011;54092;53.088;8.850;2023-07-31T03:25:01;7.00;;;3.88;;
67162;SDS011;54092;53.088;8.850;2023-07-31T03:27:27;7.07;;;3.83;;
67162;SDS011;54092;53.088;8.850;2023-07-31T03:29:53;9.40;;;3.75;;
67162;SDS011;54092;53.088;8.850;2023-07-31T03:32:18;8.05;;;3.95;;
67162;SDS011;54092;53.088;8.850;2023-07-31T03:34:44;7.57;;;3.80;;
67162;SDS011;54092;53.088;8.850;2023-07-31T03:37:09;7.45;;;4.32;;
67162;SDS011;54092;53.088;8.850;2023-07-31T03:39:35;8.38;;;3.58;;
67162;SDS011;54092;53.088;8.850;2023-07-31T03:42:00;9.10;;;3.95;;
67162;SDS011;54092;53.088;8.850;2023-07-31T03:44:26;8.30;;;4.03;;
67162;SDS011;54092;53.088;8.850;2023-07-31T03:46:52;7.68;;;3.90;;
67162;SDS011;54092;53.088;8.850;2023-07-31T03:49:17;8.45;;;3.85;;
67162;SDS011;54092;53.088;8.850;2023-07-31T03:51:43;7.10;;;3.38;;
67162;SDS011;54092;53.088;8.850;2023-07-31T03:54:08;7.97;;;3.70;;
67162;SDS011;54092;53.088;8.850;2023-07-31T03:56:34;7.65;;;4.03;;
67162;SDS011;54092;53.088;8.850;2023-07-31T03:58:59;6.93;;;3.50;;
67162;SDS011;54092;53.088;8.850;2023-07-31T04:01:25;8.98;;;4.05;;
67162;SDS011;54092;53.088;8.850;2023-07-31T04:03:51;6.97;;;3.85;;
67162;SDS011;54092;53.088;8.850;2023-07-31T04:06:17;7.13;;;4.07;;
67162;SDS011;54092;53.088;8.850;2023-07-31T04:08:45;7.40;;;4.00;;
67162;SDS011;54092;53.088;8.850;2023-07-31T04:11:11;9.52;;;4.05;;
67162;SDS011;54092;53.088;8.850;2023-07-31T04:13:37;10.13;;;4.22;;
67162;SDS011;54092;53.088;8.850;2023-07-31T04:16:03;8.25;;;3.92;;
67162;SDS011;54092;53.088;8.850;2023-07-31T04:18:29;9.23;;;4.25;;
67162;SDS011;54092;53.088;8.850;2023-07-31T04:20:56;7.95;;;3.80;;
67162;SDS011;54092;53.088;8.850;2023-07-31T04:23:23;9.07;;;4.40;;
67162;SDS011;54092;53.088;8.850;2023-07-31T04:25:52;8.48;;;4.40;;
67162;SDS011;54092;53.088;8.850;2023-07-31T04:28:17;8.93;;;4.25;;
67162;SDS011;54092;53.088;8.850;2023-07-31T04:30:43;8.43;;;4.00;;
67162;SDS011;54092;53.088;8.850;2023-07-31T04:33:08;8.80;;;4.32;;
67162;SDS011;54092;53.088;8.850;2023-07-31T04:35:34;8.63;;;4.05;;
67162;SDS011;54092;53.088;8.850;2023-07-31T04:37:59;8.80;;;3.60;;
67162;SDS011;54092;53.088;8.850;2023-07-31T04:40:25;7.88;;;3.90;;
67162;SDS011;54092;53.088;8.850;2023-07-31T04:42:51;8.88;;;3.60;;
67162;SDS011;54092;53.088;8.850;2023-07-31T04:45:16;7.30;;;3.95;;
67162;SDS011;54092;53.088;8.850;2023-07-31T04:47:42;7.38;;;4.00;;
67162;SDS011;54092;53.088;8.850;2023-07-31T04:50:07;8.40;;;3.60;;
67162;SDS011;54092;53.088;8.850;2023-07-31T04:52:33;5.50;;;3.10;;
67162;SDS011;54092;53.088;8.850;2023-07-31T04:54:59;6.88;;;3.70;;
67162;SDS011;54092;53.088;8.850;2023-07-31T04:57:24;7.50;;;3.70;;
67162;SDS011;54092;53.088;8.850;2023-07-31T04:59:50;6.47;;;3.67;;
67162;SDS011;54092;53.088;8.850;2023-07-31T05:02:15;6.45;;;3.22;;
67162;SDS011;54092;53.088;8.850;2023-07-31T05:04:41;7.10;;;3.60;;
67162;SDS011;54092;53.088;8.850;2023-07-31T05:07:06;5.53;;;3.05;;
67162;SDS011;54092;53.088;8.850;2023-07-31T05:09:32;6.43;;;3.55;;
67162;SDS011;54092;53.088;8.850;2023-07-31T05:11:57;6.10;;;3.00;;
67162;SDS011;54092;53.088;8.850;2023-07-31T05:14:23;8.30;;;3.35;;
67162;SDS011;54092;53.088;8.850;2023-07-31T05:16:49;5.32;;;2.83;;
67162;SDS011;54092;53.088;8.850;2023-07-31T05:19:14;6.20;;;3.05;;
67162;SDS011;54092;53.088;8.850;2023-07-31T05:21:40;6.55;;;3.17;;
67162;SDS011;54092;53.088;8.850;2023-07-31T05:24:05;6.53;;;3.13;;
67162;SDS011;54092;53.088;8.850;2023-07-31T05:26:31;5.95;;;2.97;;
67162;SDS011;54092;53.088;8.850;2023-07-31T05:28:57;4.57;;;2.58;;
67162;SDS011;54092;53.088;8.850;2023-07-31T05:31:23;4.60;;;2.50;;
67162;SDS011;54092;53.088;8.850;2023-07-31T05:33:49;4.43;;;2.30;;
67162;SDS011;54092;53.088;8.850;2023-07-31T05:36:15;4.93;;;2.30;;
67162;SDS011;54092;53.088;8.850;2023-07-31T05:38:41;6.50;;;2.25;;
67162;SDS011;54092;53.088;8.850;2023-07-31T05:41:09;5.70;;;2.28;;
67162;SDS011;54092;53.088;8.850;2023-07-31T05:43:34;5.20;;;2.28;;
67162;SDS011;54092;53.088;8.850;2023-07-31T05:46:00;4.10;;;2.40;;
67162;SDS011;54092;53.088;8.850;2023-07-31T05:48:26;4.28;;;2.20;;
67162;SDS011;54092;53.088;8.850;2023-07-31T05:50:52;4.75;;;2.05;;
67162;SDS011;54092;53.088;8.850;2023-07-31T05:53:17;4.93;;;2.33;;
67162;SDS011;54092;53.088;8.850;2023-07-31T05:55:43;4.18;;;2.10;;
67162;SDS011;54092;53.088;8.850;2023-07-31T05:58:08;4.75;;;2.13;;
67162;SDS011;54092;53.088;8.850;2023-07-31T06:00:34;5.45;;;2.35;;
67162;SDS011;54092;53.088;8.850;2023-07-31T06:02:59;3.70;;;2.00;;
67162;SDS011;54092;53.088;8.850;2023-07-31T06:05:25;4.55;;;2.10;;
67162;SDS011;54092;53.088;8.850;2023-07-31T06:07:51;4.28;;;2.45;;
67162;SDS011;54092;53.088;8.850;2023-07-31T06:10:16;4.88;;;2.10;;
67162;SDS011;54092;53.088;8.850;2023-07-31T06:12:42;5.30;;;2.30;;
67162;SDS011;54092;53.088;8.850;2023-07-31T06:15:08;7.53;;;2.30;;
67162;SDS011;54092;53.088;8.850;2023-07-31T06:17:34;5.50;;;2.38;;
67162;SDS011;54092;53.088;8.850;2023-07-31T06:19:59;5.15;;;2.30;;
67162;SDS011;54092;53.088;8.850;2023-07-31T06:22:25;7.28;;;2.72;;
67162;SDS011;54092;53.088;8.850;2023-07-31T06:24:50;5.72;;;2.80;;
67162;SDS011;54092;53.088;8.850;2023-07-31T06:27:16;5.80;;;2.75;;
67162;SDS011;54092;53.088;8.850;2023-07-31T06:29:42;4.78;;;2.47;;
67162;SDS011;54092;53.088;8.850;2023-07-31T06:32:07;6.80;;;2.83;;
67162;SDS011;54092;53.088;8.850;2023-07-31T06:34:33;5.18;;;2.47;;
67162;SDS011;54092;53.088;8.850;2023-07-31T06:36:58;5.10;;;2.60;;
67162;SDS011;54092;53.088;8.850;2023-07-31T06:39:24;6.95;;;3.00;;
67162;SDS011;54092;53.088;8.850;2023-07-31T06:41:49;5.38;;;2.50;;
67162;SDS011;54092;53.088;8.850;2023-07-31T06:44:15;5.25;;;2.92;;
67162;SDS011;54092;53.088;8.850;2023-07-31T06:46:41;4.32;;;2.50;;
67162;SDS011;54092;53.088;8.850;2023-07-31T06:49:07;4.68;;;2.28;;
67162;SDS011;54092;53.088;8.850;2023-07-31T06:51:33;5.43;;;2.40;;
67162;SDS011;54092;53.088;8.850;2023-07-31T06:53:58;4.85;;;2.42;;
67162;SDS011;54092;53.088;8.850;2023-07-31T06:56:24;4.78;;;2.60;;
67162;SDS011;54092;53.088;8.850;2023-07-31T06:58:51;4.63;;;2.30;;
67162;SDS011;54092;53.088;8.850;2023-07-31T07:01:16;4.50;;;2.25;;
67162;SDS011;54092;53.088;8.850;2023-07-31T07:03:42;3.55;;;2.13;;
67162;SDS011;54092;53.088;8.850;2023-07-31T07:06:07;6.15;;;2.30;;
67162;SDS011;54092;53.088;8.850;2023-07-31T07:08:33;5.05;;;2.42;;
67162;SDS011;54092;53.088;8.850;2023-07-31T07:10:58;4.65;;;2.30;;
67162;SDS011;54092;53.088;8.850;2023-07-31T07:13:24;5.55;;;2.50;;
67162;SDS011;54092;53.088;8.850;2023-07-31T07:15:50;5.70;;;2.80;;
67162;SDS011;54092;53.088;8.850;2023-07-31T07:18:16;5.40;;;2.88;;
67162;SDS011;54092;53.088;8.850;2023-07-31T07:20:52;5.68;;;2.30;;
67162;SDS011;54092;53.088;8.850;2023-07-31T07:23:18;4.65;;;2.17;;
67162;SDS011;54092;53.088;8.850;2023-07-31T07:25:44;4.07;;;2.05;;
67162;SDS011;54092;53.088;8.850;2023-07-31T07:28:10;4.30;;;2.17;;
67162;SDS011;54092;53.088;8.850;2023-07-31T07:30:36;7.20;;;2.80;;
67162;SDS011;54092;53.088;8.850;2023-07-31T07:33:02;5.38;;;2.38;;
67162;SDS011;54092;53.088;8.850;2023-07-31T07:35:27;4.07;;;2.33;;
67162;SDS011;54092;53.088;8.850;2023-07-31T07:37:53;5.75;;;2.50;;
67162;SDS011;54092;53.088;8.850;2023-07-31T07:40:19;7.00;;;2.83;;
67162;SDS011;54092;53.088;8.850;2023-07-31T07:42:45;7.45;;;3.13;;
67162;SDS011;54092;53.088;8.850;2023-07-31T07:45:11;8.10;;;3.50;;
67162;SDS011;54092;53.088;8.850;2023-07-31T07:47:37;8.93;;;3.55;;
67162;SDS011;54092;53.088;8.850;2023-07-31T07:50:05;7.82;;;3.47;;
67162;SDS011;54092;53.088;8.850;2023-07-31T07:52:31;9.07;;;3.42;;
67162;SDS011;54092;53.088;8.850;2023-07-31T07:54:57;9.00;;;4.38;;
67162;SDS011;54092;53.088;8.850;2023-07-31T07:57:22;9.93;;;4.60;;
67162;SDS011;54092;53.088;8.850;2023-07-31T07:59:48;14.65;;;5.32;;
67162;SDS011;54092;53.088;8.850;2023-07-31T08:02:13;14.98;;;5.93;;
67162;SDS011;54092;53.088;8.850;2023-07-31T08:04:39;14.85;;;5.40;;
67162;SDS011;54092;53.088;8.850;2023-07-31T08:07:04;15.05;;;6.35;;
67162;SDS011;54092;53.088;8.850;2023-07-31T08:09:30;16.35;;;6.32;;
67162;SDS011;54092;53.088;8.850;2023-07-31T08:11:55;22.00;;;7.43;;
67162;SDS011;54092;53.088;8.850;2023-07-31T08:14:26;17.83;;;7.68;;
67162;SDS011;54092;53.088;8.850;2023-07-31T08:16:52;17.17;;;6.68;;
67162;SDS011;54092;53.088;8.850;2023-07-31T08:19:18;24.23;;;8.35;;
67162;SDS011;54092;53.088;8.850;2023-07-31T08:21:43;20.63;;;7.45;;
67162;SDS011;54092;53.088;8.850;2023-07-31T08:24:09;23.25;;;7.65;;
67162;SDS011;54092;53.088;8.850;2023-07-31T08:26:35;20.33;;;8.95;;
67162;SDS011;54092;53.088;8.850;2023-07-31T08:29:00;20.65;;;8.02;;
67162;SDS011;54092;53.088;8.850;2023-07-31T08:31:26;22.75;;;8.45;;
67162;SDS011;54092;53.088;8.850;2023-07-31T08:33:52;23.15;;;9.25;;
67162;SDS011;54092;53.088;8.850;2023-07-31T08:36:17;23.35;;;8.93;;
67162;SDS011;54092;53.088;8.850;2023-07-31T08:38:43;26.30;;;10.25;;
67162;SDS011;54092;53.088;8.850;2023-07-31T08:41:10;28.73;;;10.00;;
67162;SDS011;54092;53.088;8.850;2023-07-31T08:43:35;25.20;;;9.20;;
67162;SDS011;54092;53.088;8.850;2023-07-31T08:46:02;23.02;;;11.10;;
67162;SDS011;54092;53.088;8.850;2023-07-31T08:48:28;27.25;;;9.50;;
67162;SDS011;54092;53.088;8.850;2023-07-31T08:50:55;24.92;;;9.55;;
67162;SDS011;54092;53.088;8.850;2023-07-31T08:53:21;25.55;;;10.00;;
67162;SDS011;54092;53.088;8.850;2023-07-31T08:55:47;25.30;;;9.93;;
67162;SDS011;54092;53.088;8.850;2023-07-31T08:58:13;23.95;;;9.02;;
67162;SDS011;54092;53.088;8.850;2023-07-31T09:00:40;26.67;;;9.25;;
67162;SDS011;54092;53.088;8.850;2023-07-31T09:03:09;26.33;;;8.95;;
67162;SDS011;54092;53.088;8.850;2023-07-31T09:08:06;18.13;;;9.30;;
67162;SDS011;54092;53.088;8.850;2023-07-31T09:10:34;24.33;;;8.40;;
67162;SDS011;54092;53.088;8.850;2023-07-31T09:12:59;22.55;;;9.38;;
67162;SDS011;54092;53.088;8.850;2023-07-31T09:15:26;17.38;;;7.57;;
67162;SDS011;54092;53.088;8.850;2023-07-31T09:18:00;20.23;;;8.63;;
67162;SDS011;54092;53.088;8.850;2023-07-31T09:20:26;18.63;;;7.05;;
67162;SDS011;54092;53.088;8.850;2023-07-31T09:22:52;18.38;;;7.47;;
67162;SDS011;54092;53.088;8.850;2023-07-31T09:25:18;23.08;;;7.50;;
67162;SDS011;54092;53.088;8.850;2023-07-31T09:27:54;23.45;;;7.47;;
67162;SDS011;54092;53.088;8.850;2023-07-31T09:30:22;21.20;;;7.80;;
67162;SDS011;54092;53.088;8.850;2023-07-31T09:32:49;21.70;;;6.50;;
67162;SDS011;54092;53.088;8.850;2023-07-31T09:37:51;18.92;;;7.25;;
67162;SDS011;54092;53.088;8.850;2023-07-31T09:40:24;14.18;;;6.32;;
67162;SDS011;54092;53.088;8.850;2023-07-31T09:42:58;16.58;;;6.30;;
67162;SDS011;54092;53.088;8.850;2023-07-31T09:45:25;14.32;;;6.03;;
67162;SDS011;54092;53.088;8.850;2023-07-31T09:47:52;18.25;;;6.63;;
67162;SDS011;54092;53.088;8.850;2023-07-31T09:50:19;13.48;;;6.00;;
67162;SDS011;54092;53.088;8.850;2023-07-31T09:52:45;17.15;;;6.47;;
67162;SDS011;54092;53.088;8.850;2023-07-31T09:55:11;13.30;;;5.30;;
67162;SDS011;54092;53.088;8.850;2023-07-31T09:57:39;15.35;;;5.60;;
67162;SDS011;54092;53.088;8.850;2023-07-31T10:02:34;18.17;;;6.13;;
67162;SDS011;54092;53.088;8.850;2023-07-31T10:05:01;12.15;;;5.32;;
67162;SDS011;54092;53.088;8.850;2023-07-31T10:07:28;13.73;;;5.03;;
67162;SDS011;54092;53.088;8.850;2023-07-31T10:09:56;10.00;;;4.32;;
67162;SDS011;54092;53.088;8.850;2023-07-31T10:12:25;11.68;;;4.50;;
67162;SDS011;54092;53.088;8.850;2023-07-31T10:14:54;10.88;;;4.80;;
67162;SDS011;54092;53.088;8.850;2023-07-31T10:17:21;12.30;;;4.72;;
67162;SDS011;54092;53.088;8.850;2023-07-31T10:22:15;7.90;;;4.15;;
67162;SDS011;54092;53.088;8.850;2023-07-31T10:24:45;10.98;;;4.28;;
67162;SDS011;54092;53.088;8.850;2023-07-31T10:27:11;10.75;;;4.22;;
67162;SDS011;54092;53.088;8.850;2023-07-31T10:29:37;9.90;;;4.30;;
67162;SDS011;54092;53.088;8.850;2023-07-31T10:32:04;7.68;;;3.97;;
67162;SDS011;54092;53.088;8.850;2023-07-31T10:34:35;7.35;;;4.07;;
67162;SDS011;54092;53.088;8.850;2023-07-31T10:37:20;8.98;;;4.05;;
67162;SDS011;54092;53.088;8.850;2023-07-31T10:40:05;7.78;;;3.53;;
67162;SDS011;54092;53.088;8.850;2023-07-31T10:45:05;7.57;;;3.70;;
67162;SDS011;54092;53.088;8.850;2023-07-31T10:47:42;9.00;;;3.83;;
67162;SDS011;54092;53.088;8.850;2023-07-31T10:52:37;5.97;;;2.75;;
67162;SDS011;54092;53.088;8.850;2023-07-31T10:57:51;8.23;;;3.50;;
67162;SDS011;54092;53.088;8.850;2023-07-31T11:00:39;5.65;;;2.58;;
67162;SDS011;54092;53.088;8.850;2023-07-31T11:03:05;5.38;;;2.53;;
67162;SDS011;54092;53.088;8.850;2023-07-31T11:05:55;4.45;;;2.55;;
67162;SDS011;54092;53.088;8.850;2023-07-31T11:08:31;5.20;;;2.40;;
67162;SDS011;54092;53.088;8.850;2023-07-31T11:13:26;6.15;;;2.55;;
67162;SDS011;54092;53.088;8.850;2023-07-31T11:15:55;3.25;;;2.00;;
67162;SDS011;54092;53.088;8.850;2023-07-31T11:18:21;4.35;;;2.17;;
67162;SDS011;54092;53.088;8.850;2023-07-31T11:20:47;4.13;;;2.10;;
67162;SDS011;54092;53.088;8.850;2023-07-31T11:23:12;3.38;;;2.10;;
67162;SDS011;54092;53.088;8.850;2023-07-31T11:25:40;3.75;;;2.28;;
67162;SDS011;54092;53.088;8.850;2023-07-31T11:28:08;3.33;;;1.92;;
67162;SDS011;54092;53.088;8.850;2023-07-31T11:30:34;4.97;;;2.03;;
67162;SDS011;54092;53.088;8.850;2023-07-31T11:33:01;4.88;;;2.05;;
67162;SDS011;54092;53.088;8.850;2023-07-31T11:35:44;2.88;;;2.00;;
67162;SDS011;54092;53.088;8.850;2023-07-31T11:38:11;5.20;;;1.90;;
67162;SDS011;54092;53.088;8.850;2023-07-31T11:40:45;3.70;;;1.90;;
67162;SDS011;54092;53.088;8.850;2023-07-31T11:43:11;2.75;;;1.83;;
67162;SDS011;54092;53.088;8.850;2023-07-31T11:45:41;3.00;;;1.60;;
67162;SDS011;54092;53.088;8.850;2023-07-31T11:48:10;3.30;;;1.80;;
67162;SDS011;54092;53.088;8.850;2023-07-31T11:50:35;2.97;;;1.80;;
67162;SDS011;54092;53.088;8.850;2023-07-31T11:53:03;3.00;;;1.88;;
67162;SDS011;54092;53.088;8.850;2023-07-31T11:55:34;2.67;;;1.80;;
67162;SDS011;54092;53.088;8.850;2023-07-31T11:58:00;4.13;;;1.90;;
67162;SDS011;54092;53.088;8.850;2023-07-31T12:00:26;2.35;;;1.85;;
67162;SDS011;54092;53.088;8.850;2023-07-31T12:02:52;2.92;;;1.90;;
67162;SDS011;54092;53.088;8.850;2023-07-31T12:05:18;2.90;;;1.83;;
67162;SDS011;54092;53.088;8.850;2023-07-31T12:07:49;3.40;;;1.90;;
67162;SDS011;54092;53.088;8.850;2023-07-31T12:10:23;2.75;;;1.75;;
67162;SDS011;54092;53.088;8.850;2023-07-31T12:12:59;4.18;;;2.10;;
67162;SDS011;54092;53.088;8.850;2023-07-31T12:15:34;3.47;;;2.35;;
67162;SDS011;54092;53.088;8.850;2023-07-31T12:18:00;3.15;;;1.95;;
67162;SDS011;54092;53.088;8.850;2023-07-31T12:20:29;2.13;;;1.80;;
67162;SDS011;54092;53.088;8.850;2023-07-31T12:22:56;2.70;;;1.90;;
67162;SDS011;54092;53.088;8.850;2023-07-31T12:25:22;3.03;;;1.90;;
67162;SDS011;54092;53.088;8.850;2023-07-31T12:27:48;2.92;;;1.92;;
67162;SDS011;54092;53.088;8.850;2023-07-31T12:30:32;3.65;;;2.38;;
67162;SDS011;54092;53.088;8.850;2023-07-31T12:33:04;2.35;;;1.90;;
67162;SDS011;54092;53.088;8.850;2023-07-31T12:35:40;3.88;;;2.10;;
67162;SDS011;54092;53.088;8.850;2023-07-31T12:38:10;4.15;;;2.20;;
67162;SDS011;54092;53.088;8.850;2023-07-31T12:40:37;3.67;;;2.20;;
67162;SDS011;54092;53.088;8.850;2023-07-31T12:43:04;3.55;;;2.20;;
67162;SDS011;54092;53.088;8.850;2023-07-31T12:45:30;3.40;;;2.10;;
67162;SDS011;54092;53.088;8.850;2023-07-31T12:47:57;3.70;;;2.10;;
67162;SDS011;54092;53.088;8.850;2023-07-31T12:50:23;3.60;;;2.10;;
67162;SDS011;54092;53.088;8.850;2023-07-31T12:52:49;4.80;;;2.33;;
67162;SDS011;54092;53.088;8.850;2023-07-31T12:55:14;4.03;;;2.30;;
67162;SDS011;54092;53.088;8.850;2023-07-31T12:57:40;3.35;;;2.20;;
67162;SDS011;54092;53.088;8.850;2023-07-31T13:00:07;3.63;;;2.30;;
67162;SDS011;54092;53.088;8.850;2023-07-31T13:02:33;5.18;;;2.35;;
67162;SDS011;54092;53.088;8.850;2023-07-31T13:04:58;4.25;;;2.40;;
67162;SDS011;54092;53.088;8.850;2023-07-31T13:07:24;3.75;;;2.15;;
67162;SDS011;54092;53.088;8.850;2023-07-31T13:09:50;5.43;;;2.40;;
67162;SDS011;54092;53.088;8.850;2023-07-31T13:12:15;5.28;;;2.28;;
67162;SDS011;54092;53.088;8.850;2023-07-31T13:14:41;5.05;;;2.53;;
67162;SDS011;54092;53.088;8.850;2023-07-31T13:17:06;7.13;;;3.63;;
67162;SDS011;54092;53.088;8.850;2023-07-31T13:19:32;4.25;;;2.20;;
67162;SDS011;54092;53.088;8.850;2023-07-31T13:21:58;4.32;;;2.17;;
67162;SDS011;54092;53.088;8.850;2023-07-31T13:24:23;5.35;;;2.65;;
67162;SDS011;54092;53.088;8.850;2023-07-31T13:26:49;5.00;;;2.40;;
67162;SDS011;54092;53.088;8.850;2023-07-31T13:29:14;5.00;;;2.67;;
67162;SDS011;54092;53.088;8.850;2023-07-31T13:31:40;4.72;;;2.80;;
67162;SDS011;54092;53.088;8.850;2023-07-31T13:34:05;5.60;;;2.65;;
67162;SDS011;54092;53.088;8.850;2023-07-31T13:36:31;5.75;;;2.88;;
67162;SDS011;54092;53.088;8.850;2023-07-31T13:38:58;5.63;;;2.63;;
67162;SDS011;54092;53.088;8.850;2023-07-31T13:41:24;5.40;;;3.00;;
67162;SDS011;54092;53.088;8.850;2023-07-31T13:43:50;5.60;;;3.17;;
67162;SDS011;54092;53.088;8.850;2023-07-31T13:46:15;5.70;;;3.00;;
67162;SDS011;54092;53.088;8.850;2023-07-31T13:48:41;8.25;;;3.60;;
67162;SDS011;54092;53.088;8.850;2023-07-31T13:51:06;9.13;;;3.90;;
67162;SDS011;54092;53.088;8.850;2023-07-31T13:53:32;6.65;;;3.22;;
67162;SDS011;54092;53.088;8.850;2023-07-31T13:55:57;7.50;;;3.80;;
67162;SDS011;54092;53.088;8.850;2023-07-31T13:58:23;7.20;;;3.63;;
67162;SDS011;54092;53.088;8.850;2023-07-31T14:00:48;6.55;;;3.33;;
67162;SDS011;54092;53.088;8.850;2023-07-31T14:03:14;6.75;;;3.63;;
67162;SDS011;54092;53.088;8.850;2023-07-31T14:05:39;6.90;;;3.60;;
67162;SDS011;54092;53.088;8.850;2023-07-31T14:08:05;6.60;;;3.55;;
67162;SDS011;54092;53.088;8.850;2023-07-31T14:10:31;7.22;;;3.67;;
67162;SDS011;54092;53.088;8.850;2023-07-31T14:12:56;7.13;;;3.88;;
67162;SDS011;54092;53.088;8.850;2023-07-31T14:15:22;9.00;;;4.10;;
67162;SDS011;54092;53.088;8.850;2023-07-31T14:17:47;8.70;;;3.90;;
67162;SDS011;54092;53.088;8.850;2023-07-31T14:20:13;8.60;;;4.57;;
67162;SDS011;54092;53.088;8.850;2023-07-31T14:22:38;7.43;;;4.25;;
67162;SDS011;54092;53.088;8.850;2023-07-31T14:25:04;11.40;;;5.07;;
67162;SDS011;54092;53.088;8.850;2023-07-31T14:27:30;8.57;;;4.35;;
67162;SDS011;54092;53.088;8.850;2023-07-31T14:29:55;8.60;;;4.60;;
67162;SDS011;54092;53.088;8.850;2023-07-31T14:32:21;7.63;;;4.43;;
67162;SDS011;54092;53.088;8.850;2023-07-31T14:34:48;9.88;;;5.32;;
67162;SDS011;54092;53.088;8.850;2023-07-31T14:37:14;8.93;;;4.95;;
67162;SDS011;54092;53.088;8.850;2023-07-31T14:39:39;10.35;;;5.15;;
67162;SDS011;54092;53.088;8.850;2023-07-31T14:42:05;11.07;;;5.30;;
67162;SDS011;54092;53.088;8.850;2023-07-31T14:44:30;10.05;;;4.72;;
67162;SDS011;54092;53.088;8.850;2023-07-31T14:46:56;11.30;;;4.93;;
67162;SDS011;54092;53.088;8.850;2023-07-31T14:49:21;9.00;;;5.05;;
67162;SDS011;54092;53.088;8.850;2023-07-31T14:51:47;9.95;;;5.53;;
67162;SDS011;54092;53.088;8.850;2023-07-31T14:54:12;9.68;;;5.32;;
67162;SDS011;54092;53.088;8.850;2023-07-31T14:56:38;10.95;;;5.75;;
67162;SDS011;54092;53.088;8.850;2023-07-31T14:59:03;10.15;;;5.35;;
67162;SDS011;54092;53.088;8.850;2023-07-31T15:01:29;9.27;;;5.50;;
67162;SDS011;54092;53.088;8.850;2023-07-31T15:03:55;9.73;;;5.68;;
67162;SDS011;54092;53.088;8.850;2023-07-31T15:06:20;10.25;;;4.95;;
67162;SDS011;54092;53.088;8.850;2023-07-31T15:08:46;8.60;;;5.28;;